Time;durP1;ratioP1;P1;durP2;ratioP2;P2;SDS_P1;SDS_P2;PMS_P1;PMS_P2;Temp;Humidity;BMP_temperature;BMP_pressure;BME280_temperature;BME280_humidity;BME280_pressure;Samples;Min_cycle;Max_cycle;Signal;HPM_P1;HPM_P2
2022/09/24 00:01:16;;;;;;;40.92;36.72;;;14.80;75.40;;;;;;5096394;28;20457;-68
2022/09/24 00:03:44;;;;;;;41.45;36.80;;;14.80;75.40;;;;;;5112866;28;20434;-67
2022/09/24 00:06:13;;;;;;;43.58;38.63;;;14.70;75.30;;;;;;5112846;28;20478;-67
2022/09/24 00:08:39;;;;;;;42.05;37.67;;;14.80;75.40;;;;;;5112434;28;20047;-67
2022/09/24 00:11:06;;;;;;;38.88;34.92;;;14.70;75.40;;;;;;5113102;28;20031;-68
2022/09/24 00:13:34;;;;;;;40.25;35.72;;;14.70;75.50;;;;;;5112390;28;20035;-67
2022/09/24 00:16:06;;;;;;;39.95;35.78;;;14.80;75.50;;;;;;5112605;28;20062;-68
2022/09/24 00:18:32;;;;;;;46.10;41.33;;;14.80;75.60;;;;;;5095632;28;20100;-68
2022/09/24 00:20:58;;;;;;;45.28;39.35;;;14.70;75.50;;;;;;5095691;28;20122;-67
2022/09/24 00:23:24;;;;;;;44.25;39.58;;;14.70;75.60;;;;;;5112724;28;20410;-68
2022/09/24 00:28:34;;;;;;;42.92;38.17;;;14.70;75.70;;;;;;5097511;28;20050;-68
2022/09/24 00:31:05;;;;;;;45.75;40.90;;;14.70;75.70;;;;;;5112427;28;20031;-68
2022/09/24 00:33:33;;;;;;;45.78;40.88;;;14.70;75.70;;;;;;5112613;28;20081;-68
2022/09/24 00:36:02;;;;;;;42.95;38.45;;;14.70;75.80;;;;;;5112707;28;20047;-68
2022/09/24 00:38:28;;;;;;;43.97;39.20;;;14.70;75.80;;;;;;5112010;28;20077;-68
2022/09/24 00:40:54;;;;;;;46.75;39.55;;;14.70;75.80;;;;;;5094611;28;20043;-68
2022/09/24 00:43:27;;;;;;;42.35;37.85;;;14.70;75.80;;;;;;5112577;28;20040;-67
2022/09/24 00:46:08;;;;;;;42.63;38.05;;;14.70;75.90;;;;;;5112299;28;20394;-68
2022/09/24 00:48:34;;;;;;;40.63;36.42;;;14.70;75.90;;;;;;5094923;28;20048;-67
2022/09/24 00:51:01;;;;;;;42.17;37.85;;;14.70;75.80;;;;;;5113062;27;20050;-67
2022/09/24 00:53:32;;;;;;;40.72;36.33;;;14.70;75.80;;;;;;5112239;28;20435;-67
2022/09/24 00:55:59;;;;;;;47.47;40.60;;;14.70;75.80;;;;;;5111756;28;20518;-67
2022/09/24 00:58:27;;;;;;;43.90;39.03;;;14.70;75.80;;;;;;5111455;28;20066;-68
2022/09/24 01:00:59;;;;;;;43.30;38.75;;;14.70;75.80;;;;;;5111858;28;20051;-68
2022/09/24 01:03:26;;;;;;;39.72;35.60;;;14.70;75.80;;;;;;5112091;28;20074;-67
2022/09/24 01:05:51;;;;;;;39.78;35.55;;;14.70;75.80;;;;;;5111606;28;20494;-68
2022/09/24 01:08:19;;;;;;;38.25;33.95;;;14.70;75.70;;;;;;5111274;28;20057;-68
2022/09/24 01:11:03;;;;;;;41.38;37.05;;;14.70;75.70;;;;;;5111907;28;20043;-68
2022/09/24 01:13:40;;;;;;;43.47;38.83;;;14.70;75.60;;;;;;5111926;28;20077;-68
2022/09/24 01:16:12;;;;;;;39.53;35.28;;;14.70;75.60;;;;;;5111133;28;20432;-68
2022/09/24 01:18:47;;;;;;;40.33;36.03;;;14.70;75.50;;;;;;5127937;28;20039;-68
2022/09/24 01:21:35;;;;;;;41.60;37.13;;;14.70;75.50;;;;;;5111527;28;20043;-68
2022/09/24 01:24:12;;;;;;;42.20;37.70;;;14.70;75.30;;;;;;5111515;28;20036;-68
2022/09/24 01:27:01;;;;;;;43.03;38.53;;;14.70;75.40;;;;;;5127875;28;20055;-68
2022/09/24 01:29:36;;;;;;;40.53;36.28;;;14.70;75.20;;;;;;5047446;28;20118;-68
2022/09/24 01:32:30;;;;;;;40.55;36.35;;;14.70;75.30;;;;;;5111658;28;20507;-68
2022/09/24 01:35:12;;;;;;;39.70;35.42;;;14.70;75.30;;;;;;5111743;28;20043;-68
2022/09/24 01:37:42;;;;;;;45.90;41.17;;;14.70;75.30;;;;;;5112169;28;20046;-68
2022/09/24 01:40:10;;;;;;;40.92;36.70;;;14.70;75.30;;;;;;5115813;28;20043;-68
2022/09/24 01:42:38;;;;;;;44.20;39.35;;;14.70;75.70;;;;;;5115835;28;20432;-68
2022/09/24 01:45:05;;;;;;;40.10;35.88;;;14.70;75.40;;;;;;5129623;27;20036;-68
2022/09/24 01:47:38;;;;;;;41.80;37.47;;;14.70;75.40;;;;;;5115493;28;20100;-68
2022/09/24 01:50:08;;;;;;;44.55;39.80;;;14.70;75.40;;;;;;5115392;28;20067;-68
2022/09/24 01:52:44;;;;;;;48.53;42.95;;;14.70;75.40;;;;;;5099008;28;20043;-68
2022/09/24 01:55:14;;;;;;;42.65;38.20;;;14.80;75.50;;;;;;5097880;28;20124;-68
2022/09/24 01:57:51;;;;;;;45.58;40.58;;;14.70;75.60;;;;;;5115188;28;20115;-68
2022/09/24 02:00:20;;;;;;;48.17;40.42;;;14.70;75.50;;;;;;5115035;28;20048;-68
2022/09/24 02:02:49;;;;;;;44.92;40.20;;;14.70;75.50;;;;;;5098856;28;20101;-68
2022/09/24 02:05:27;;;;;;;48.15;42.47;;;14.70;75.60;;;;;;5115237;28;20039;-68
2022/09/24 02:08:03;;;;;;;45.40;40.58;;;14.70;75.60;;;;;;5127674;27;20066;-68
2022/09/24 02:10:36;;;;;;;47.33;41.25;;;14.70;75.70;;;;;;5111873;28;20035;-68
2022/09/24 02:13:06;;;;;;;49.20;42.75;;;14.70;75.70;;;;;;5115215;28;20036;-69
2022/09/24 02:15:36;;;;;;;49.63;41.60;;;14.70;75.70;;;;;;5116246;28;20031;-69
2022/09/24 02:18:06;;;;;;;45.47;40.67;;;14.70;75.70;;;;;;5114604;28;20514;-69
2022/09/24 02:20:34;;;;;;;46.55;41.58;;;14.70;75.80;;;;;;5114807;28;20130;-69
2022/09/24 02:23:02;;;;;;;46.67;40.15;;;14.60;75.70;;;;;;5114046;28;20039;-69
2022/09/24 02:25:33;;;;;;;44.17;39.00;;;14.60;75.80;;;;;;5129872;27;20105;-68
2022/09/24 02:27:59;;;;;;;47.65;40.90;;;14.60;75.70;;;;;;5102414;28;20487;-68
2022/09/24 02:30:25;;;;;;;44.22;39.05;;;14.60;75.70;;;;;;5115092;28;20118;-68
2022/09/24 02:32:54;;;;;;;45.85;40.95;;;14.60;75.70;;;;;;5097620;28;20644;-68
2022/09/24 02:35:20;;;;;;;48.00;40.97;;;14.60;75.80;;;;;;5114092;28;20044;-68
2022/09/24 02:37:46;;;;;;;43.78;39.05;;;14.60;75.80;;;;;;5114223;28;20111;-68
2022/09/24 02:40:14;;;;;;;42.60;37.78;;;14.60;75.80;;;;;;5097993;28;20043;-68
2022/09/24 02:42:41;;;;;;;39.38;35.13;;;14.60;75.90;;;;;;5114601;28;20146;-68
2022/09/24 02:45:07;;;;;;;40.70;36.33;;;14.60;75.90;;;;;;5097343;28;20036;-68
2022/09/24 02:47:33;;;;;;;48.92;40.92;;;14.60;75.80;;;;;;5114193;28;20496;-68
2022/09/24 02:49:59;;;;;;;46.55;40.47;;;14.60;75.80;;;;;;5114596;28;20073;-68
2022/09/24 02:52:25;;;;;;;48.25;41.25;;;14.60;75.80;;;;;;5114624;28;20043;-68
2022/09/24 02:54:50;;;;;;;49.05;40.83;;;14.60;75.80;;;;;;5113379;28;20039;-68
2022/09/24 02:57:17;;;;;;;44.53;38.05;;;14.60;75.90;;;;;;5130826;27;20563;-68
2022/09/24 02:59:43;;;;;;;44.88;38.95;;;14.60;75.90;;;;;;5114181;28;20073;-68
2022/09/24 03:02:09;;;;;;;42.80;37.92;;;14.60;75.90;;;;;;5114239;28;20039;-68
2022/09/24 03:04:35;;;;;;;43.00;37.58;;;14.60;76.00;;;;;;5130174;27;20039;-68
2022/09/24 03:07:01;;;;;;;41.70;37.17;;;14.60;76.00;;;;;;5121302;27;20042;-68
2022/09/24 03:09:27;;;;;;;43.97;39.17;;;14.60;76.10;;;;;;5113757;28;20067;-68
2022/09/24 03:11:53;;;;;;;52.35;43.28;;;14.60;76.00;;;;;;5096907;28;20074;-68
2022/09/24 03:14:19;;;;;;;44.72;39.80;;;14.60;76.00;;;;;;5123866;27;20039;-69
2022/09/24 03:16:44;;;;;;;43.10;38.40;;;14.50;75.90;;;;;;5130253;27;20039;-69
2022/09/24 03:19:10;;;;;;;41.63;36.58;;;14.50;75.90;;;;;;5124957;27;20039;-69
2022/09/24 03:21:35;;;;;;;40.90;35.30;;;14.50;76.00;;;;;;5131180;27;20126;-69
2022/09/24 03:24:02;;;;;;;48.05;40.55;;;14.50;75.90;;;;;;5113677;28;20514;-69
2022/09/24 03:26:28;;;;;;;51.28;42.47;;;14.50;75.90;;;;;;5096538;28;20062;-69
2022/09/24 03:28:54;;;;;;;48.08;41.53;;;14.50;76.00;;;;;;5113332;28;20044;-69
2022/09/24 03:31:22;;;;;;;50.35;42.50;;;14.50;75.90;;;;;;5130996;27;20089;-69
2022/09/24 03:33:49;;;;;;;50.22;43.13;;;14.50;75.90;;;;;;5118111;27;20046;-69
2022/09/24 03:36:19;;;;;;;52.10;43.95;;;14.50;75.90;;;;;;5134533;27;20061;-69
2022/09/24 03:38:47;;;;;;;47.85;39.50;;;14.50;76.00;;;;;;5115137;27;20044;-69
2022/09/24 03:41:13;;;;;;;47.40;39.83;;;14.50;76.00;;;;;;5113926;28;20071;-69
2022/09/24 03:43:39;;;;;;;48.78;40.83;;;14.50;76.10;;;;;;5117019;27;20061;-69
2022/09/24 03:46:06;;;;;;;51.03;41.58;;;14.40;76.10;;;;;;5133975;27;20039;-69
2022/09/24 03:48:34;;;;;;;44.72;38.47;;;14.40;76.20;;;;;;5116873;27;20104;-69
2022/09/24 03:51:09;;;;;;;43.80;35.88;;;14.40;76.30;;;;;;5096482;28;20036;-69
2022/09/24 03:53:34;;;;;;;40.80;35.30;;;14.50;76.40;;;;;;5113323;28;20039;-69
2022/09/24 03:56:01;;;;;;;44.72;38.97;;;14.40;76.30;;;;;;5124154;27;20391;-69
2022/09/24 03:58:28;;;;;;;45.83;39.33;;;14.40;76.30;;;;;;5106541;28;20048;-69
2022/09/24 04:00:56;;;;;;;42.40;37.30;;;14.40;76.30;;;;;;5112550;28;20045;-69
2022/09/24 04:03:21;;;;;;;47.65;40.25;;;14.40;76.30;;;;;;5112689;28;20039;-69
2022/09/24 04:05:50;;;;;;;50.10;40.47;;;14.40;76.30;;;;;;5113061;28;20046;-69
2022/09/24 04:08:18;;;;;;;50.42;41.92;;;14.40;76.30;;;;;;5112562;28;20035;-69
2022/09/24 04:10:48;;;;;;;49.25;41.38;;;14.40;76.30;;;;;;5113134;28;20039;-69
2022/09/24 04:13:14;;;;;;;49.88;40.65;;;14.40;76.40;;;;;;5095490;28;20070;-69
2022/09/24 04:15:40;;;;;;;51.30;42.17;;;14.40;76.30;;;;;;5113230;28;20172;-69
2022/09/24 04:18:06;;;;;;;50.40;41.47;;;14.40;76.40;;;;;;5127682;27;20044;-69
2022/09/24 04:20:33;;;;;;;49.97;39.70;;;14.40;76.40;;;;;;5095826;28;20039;-69
2022/09/24 04:23:00;;;;;;;49.35;41.42;;;14.40;76.40;;;;;;5112215;28;20042;-69
2022/09/24 04:25:29;;;;;;;52.80;43.17;;;14.30;76.90;;;;;;5112279;28;20101;-68
2022/09/24 04:28:04;;;;;;;49.88;40.50;;;14.30;76.90;;;;;;5111973;28;20040;-68
2022/09/24 04:30:31;;;;;;;48.47;40.28;;;14.30;76.60;;;;;;5112989;28;20096;-69
2022/09/24 04:32:59;;;;;;;55.10;42.95;;;14.30;76.70;;;;;;5112396;28;20035;-69
2022/09/24 04:35:28;;;;;;;53.13;42.45;;;14.30;76.80;;;;;;5112348;28;20043;-69
2022/09/24 04:37:54;;;;;;;47.10;36.60;;;14.30;76.80;;;;;;5111800;28;20028;-69
2022/09/24 04:40:21;;;;;;;46.78;39.63;;;14.20;76.80;;;;;;5112650;28;20112;-68
2022/09/24 04:42:47;;;;;;;43.03;36.25;;;14.20;76.90;;;;;;5111962;28;20101;-68
2022/09/24 04:45:16;;;;;;;46.85;38.50;;;14.20;76.90;;;;;;5112274;28;20089;-69
2022/09/24 04:47:42;;;;;;;41.80;35.25;;;14.20;77.00;;;;;;5111633;28;20551;-69
2022/09/24 04:50:10;;;;;;;50.50;40.08;;;14.20;77.00;;;;;;5112659;28;20150;-69
2022/09/24 04:52:36;;;;;;;43.05;37.50;;;14.20;77.00;;;;;;5112168;28;20048;-69
2022/09/24 04:55:03;;;;;;;50.72;40.85;;;14.20;77.00;;;;;;5095430;28;20058;-69
2022/09/24 04:57:33;;;;;;;48.78;40.70;;;14.30;77.00;;;;;;5111927;28;20032;-68
2022/09/24 04:59:59;;;;;;;45.85;38.05;;;14.20;77.00;;;;;;5112109;28;20082;-68
2022/09/24 05:02:25;;;;;;;45.00;39.03;;;14.30;77.10;;;;;;5094791;28;20474;-68
2022/09/24 05:04:51;;;;;;;47.95;40.78;;;14.30;77.10;;;;;;5112130;27;20040;-68
2022/09/24 05:07:16;;;;;;;46.30;40.33;;;14.30;77.10;;;;;;5100197;28;20070;-68
2022/09/24 05:09:42;;;;;;;50.80;41.67;;;14.30;77.10;;;;;;5111708;28;20059;-68
2022/09/24 05:12:07;;;;;;;51.30;41.60;;;14.30;77.10;;;;;;5121159;28;20032;-69
2022/09/24 05:14:33;;;;;;;46.25;38.28;;;14.30;77.10;;;;;;5111873;28;20036;-68
2022/09/24 05:16:59;;;;;;;41.28;36.80;;;14.30;77.20;;;;;;5123022;27;20047;-68
2022/09/24 05:19:24;;;;;;;43.30;38.30;;;14.30;77.30;;;;;;5080896;28;20046;-68
2022/09/24 05:21:50;;;;;;;45.13;37.33;;;14.30;77.20;;;;;;5096203;28;20043;-68
2022/09/24 05:24:16;;;;;;;45.13;36.20;;;14.30;77.20;;;;;;5111878;28;20040;-68
2022/09/24 05:29:26;;;;;;;45.30;37.25;;;14.30;77.10;;;;;;5111340;28;20061;-68
2022/09/24 05:31:51;;;;;;;39.65;33.67;;;14.30;77.10;;;;;;5128315;28;20035;-68
2022/09/24 05:34:17;;;;;;;38.22;34.05;;;14.30;77.20;;;;;;5121009;28;20040;-68
2022/09/24 05:36:43;;;;;;;41.05;36.40;;;14.30;77.20;;;;;;5109060;28;20130;-68
2022/09/24 05:39:10;;;;;;;38.58;34.28;;;14.40;77.30;;;;;;5111366;28;20474;-68
2022/09/24 05:41:37;;;;;;;38.65;33.92;;;14.30;77.20;;;;;;5115640;28;20047;-68
2022/09/24 05:44:03;;;;;;;39.60;34.38;;;14.40;77.30;;;;;;5111734;28;20506;-68
2022/09/24 05:46:29;;;;;;;34.75;30.60;;;14.40;77.20;;;;;;5094590;28;20040;-68
2022/09/24 05:48:55;;;;;;;35.72;31.67;;;14.40;77.20;;;;;;5111540;28;20074;-68
2022/09/24 05:51:20;;;;;;;33.80;30.10;;;14.30;77.00;;;;;;5094602;28;20036;-68
2022/09/24 05:53:46;;;;;;;37.05;32.35;;;14.40;77.10;;;;;;5110841;28;20031;-67
2022/09/24 05:56:12;;;;;;;34.28;29.83;;;14.40;77.10;;;;;;5129105;28;20109;-67
2022/09/24 05:58:37;;;;;;;36.60;31.40;;;14.40;77.20;;;;;;5125261;28;20105;-68
2022/09/24 06:01:03;;;;;;;35.90;31.08;;;14.40;77.20;;;;;;5094110;28;20149;-67
2022/09/24 06:03:30;;;;;;;33.22;29.63;;;14.40;77.20;;;;;;5111316;28;20035;-67
2022/09/24 06:06:00;;;;;;;37.10;30.98;;;14.40;77.20;;;;;;5110662;28;20093;-68
2022/09/24 06:08:28;;;;;;;34.95;30.27;;;14.40;77.30;;;;;;5110433;28;20047;-67
2022/09/24 06:11:01;;;;;;;34.33;28.52;;;14.40;77.40;;;;;;5121680;28;20123;-68
2022/09/24 06:13:27;;;;;;;33.45;28.27;;;14.40;77.50;;;;;;5111905;28;20114;-68
2022/09/24 06:16:01;;;;;;;36.42;28.20;;;14.40;77.40;;;;;;5111067;28;20043;-66
2022/09/24 06:18:27;;;;;;;33.25;28.38;;;14.40;77.60;;;;;;5111156;28;20043;-67
2022/09/24 06:20:54;;;;;;;33.63;28.75;;;14.30;77.60;;;;;;5094181;28;20043;-68
2022/09/24 06:23:19;;;;;;;29.95;25.85;;;14.40;77.70;;;;;;5111547;28;20100;-68
2022/09/24 06:25:50;;;;;;;26.63;23.63;;;14.40;77.80;;;;;;5125431;27;20059;-67
2022/09/24 06:28:15;;;;;;;27.60;23.65;;;14.40;77.90;;;;;;5114679;28;20035;-66
2022/09/24 06:30:41;;;;;;;26.23;22.58;;;14.40;77.80;;;;;;5114442;28;20041;-66
2022/09/24 06:33:09;;;;;;;21.35;18.15;;;14.40;77.90;;;;;;5098017;28;20042;-67
2022/09/24 06:35:41;;;;;;;21.45;18.45;;;14.40;78.40;;;;;;5114272;28;20058;-67
2022/09/24 06:38:10;;;;;;;21.25;18.23;;;14.40;78.00;;;;;;5114895;28;20396;-66
2022/09/24 06:40:36;;;;;;;20.00;16.50;;;14.40;78.10;;;;;;5114639;28;20053;-67
2022/09/24 06:43:02;;;;;;;18.95;16.02;;;14.40;78.10;;;;;;5114914;28;20114;-66
2022/09/24 06:45:27;;;;;;;18.77;15.73;;;14.40;78.10;;;;;;5126306;27;20039;-66
2022/09/24 06:47:55;;;;;;;23.50;16.80;;;14.40;78.10;;;;;;5096470;28;20043;-66
2022/09/24 06:50:22;;;;;;;18.80;14.95;;;14.40;78.10;;;;;;5125668;27;20039;-67
2022/09/24 06:52:48;;;;;;;18.60;16.02;;;14.40;78.10;;;;;;5129037;27;20037;-68
2022/09/24 06:55:14;;;;;;;17.98;15.05;;;14.50;78.20;;;;;;5127947;27;20039;-66
2022/09/24 06:57:40;;;;;;;16.73;14.35;;;14.50;78.60;;;;;;5129977;27;20118;-66
2022/09/24 07:00:06;;;;;;;17.73;14.90;;;14.50;78.20;;;;;;5130276;27;20043;-66
2022/09/24 07:02:32;;;;;;;19.50;16.30;;;14.50;78.20;;;;;;5131379;27;20050;-66
2022/09/24 07:04:58;;;;;;;17.13;14.10;;;14.50;78.20;;;;;;5130187;27;20489;-66
2022/09/24 07:07:30;;;;;;;18.20;16.02;;;14.60;78.20;;;;;;5112808;27;20038;-66
2022/09/24 07:09:56;;;;;;;18.05;15.25;;;14.60;78.20;;;;;;5112654;27;20111;-67
2022/09/24 07:12:22;;;;;;;18.38;15.73;;;14.60;78.20;;;;;;5129503;27;20118;-67
2022/09/24 07:14:48;;;;;;;17.90;16.00;;;14.70;78.20;;;;;;5130820;27;20038;-67
2022/09/24 07:17:14;;;;;;;19.48;16.33;;;14.60;78.10;;;;;;5129341;27;20035;-67
2022/09/24 07:19:40;;;;;;;18.05;15.57;;;14.70;78.10;;;;;;5129592;27;20046;-67
2022/09/24 07:22:07;;;;;;;22.58;18.20;;;14.70;78.10;;;;;;5129842;27;20489;-67
2022/09/24 07:24:32;;;;;;;23.80;19.67;;;14.70;78.10;;;;;;5112712;27;20062;-67
2022/09/24 07:26:58;;;;;;;21.70;18.48;;;14.80;78.10;;;;;;5129454;27;20047;-67
2022/09/24 07:29:24;;;;;;;22.17;17.58;;;14.80;78.10;;;;;;5129088;27;20046;-67
2022/09/24 07:31:50;;;;;;;25.80;20.55;;;14.80;78.50;;;;;;5129811;27;20461;-67
2022/09/24 07:34:15;;;;;;;23.05;19.40;;;14.80;78.10;;;;;;5128299;27;20092;-67
2022/09/24 07:36:41;;;;;;;28.05;22.60;;;14.80;78.00;;;;;;5126549;27;20046;-67
2022/09/24 07:39:07;;;;;;;24.23;18.50;;;14.90;78.10;;;;;;5127509;27;20035;-67
2022/09/24 07:41:33;;;;;;;20.33;18.13;;;14.90;78.10;;;;;;5128028;27;20043;-68
2022/09/24 07:43:59;;;;;;;23.20;18.50;;;14.90;78.50;;;;;;5129881;27;20398;-67
2022/09/24 07:46:25;;;;;;;24.33;18.23;;;14.90;78.10;;;;;;5129013;27;20047;-67
2022/09/24 07:48:55;;;;;;;23.08;17.48;;;15.00;78.20;;;;;;5129051;27;20035;-67
2022/09/24 07:51:26;;;;;;;20.98;16.25;;;15.00;78.30;;;;;;5109571;27;20042;-67
2022/09/24 07:53:52;;;;;;;21.48;15.85;;;15.00;78.30;;;;;;5128233;27;20031;-69
2022/09/24 07:56:18;;;;;;;19.17;14.23;;;15.00;78.30;;;;;;5127149;27;20118;-70
2022/09/24 07:58:47;;;;;;;21.38;15.57;;;15.00;78.30;;;;;;5110973;27;20035;-69
2022/09/24 08:01:13;;;;;;;17.42;13.45;;;15.10;78.30;;;;;;5128144;27;20054;-69
2022/09/24 08:03:39;;;;;;;20.10;14.32;;;15.10;78.20;;;;;;5128990;27;20050;-69
2022/09/24 08:06:05;;;;;;;16.92;9.98;;;15.10;78.20;;;;;;5128488;27;20351;-69
2022/09/24 08:08:31;;;;;;;18.00;8.93;;;15.20;78.10;;;;;;5128600;27;20038;-69
2022/09/24 08:10:56;;;;;;;15.73;8.02;;;15.20;77.90;;;;;;5128804;27;20035;-69
2022/09/24 08:13:23;;;;;;;13.77;7.00;;;15.20;77.70;;;;;;5128782;27;20035;-68
2022/09/24 08:15:56;;;;;;;15.50;6.65;;;15.20;77.70;;;;;;5129857;27;20394;-68
2022/09/24 08:18:23;;;;;;;11.93;5.63;;;15.20;77.70;;;;;;5123220;27;20035;-68
2022/09/24 08:20:48;;;;;;;12.30;4.15;;;15.20;77.70;;;;;;5128364;27;20157;-68
2022/09/24 08:23:14;;;;;;;7.40;3.70;;;15.30;77.70;;;;;;5111616;27;20043;-68
2022/09/24 08:25:40;;;;;;;11.73;3.00;;;15.30;77.50;;;;;;5129209;27;20106;-68
2022/09/24 08:28:07;;;;;;;10.25;3.08;;;15.30;77.50;;;;;;5127186;27;20053;-68
2022/09/24 08:30:34;;;;;;;9.63;2.70;;;15.30;77.50;;;;;;5129587;27;20089;-68
2022/09/24 08:33:00;;;;;;;14.15;2.67;;;15.30;77.40;;;;;;5128557;27;20039;-68
2022/09/24 08:35:26;;;;;;;9.05;2.30;;;15.30;77.30;;;;;;5111580;27;20382;-67
2022/09/24 08:37:55;;;;;;;11.27;2.05;;;15.30;77.30;;;;;;5126036;27;20039;-67
2022/09/24 08:40:26;;;;;;;11.85;2.40;;;15.40;77.20;;;;;;5112024;27;20039;-67
2022/09/24 08:43:29;;;;;;;10.45;2.20;;;15.40;77.20;;;;;;5128216;27;20077;-67
2022/09/24 08:48:48;;;;;;;10.10;2.00;;;15.40;77.10;;;;;;5125361;27;20062;-67
2022/09/24 08:51:19;;;;;;;12.45;2.67;;;15.50;77.10;;;;;;5126530;27;20348;-67
2022/09/24 08:53:50;;;;;;;10.40;2.20;;;15.50;77.10;;;;;;5126927;27;20045;-67
2022/09/24 08:56:25;;;;;;;8.32;1.70;;;15.50;76.90;;;;;;5127576;27;20509;-67
2022/09/24 08:59:00;;;;;;;8.63;1.90;;;15.60;76.50;;;;;;5126672;27;20034;-67
2022/09/24 09:02:04;;;;;;;8.20;2.33;;;15.60;76.20;;;;;;5124277;27;20043;-67
2022/09/24 09:04:56;;;;;;;12.00;2.05;;;15.60;75.70;;;;;;5107493;27;20145;-67
2022/09/24 09:07:52;;;;;;;9.35;2.20;;;15.60;75.80;;;;;;5126749;27;20646;-67
2022/09/24 09:10:27;;;;;;;10.52;2.22;;;15.70;75.80;;;;;;5127579;27;20139;-67
2022/09/24 09:12:59;;;;;;;9.82;1.80;;;15.70;76.10;;;;;;5126830;27;20051;-68
2022/09/24 09:15:30;;;;;;;17.52;2.65;;;15.80;76.10;;;;;;5127040;27;20064;-68
2022/09/24 09:18:06;;;;;;;9.85;1.75;;;15.80;75.80;;;;;;5124984;27;20451;-68
2022/09/24 09:20:46;;;;;;;10.48;1.70;;;15.90;75.40;;;;;;5126027;28;20118;-68
2022/09/24 09:23:17;;;;;;;9.68;1.95;;;15.90;75.10;;;;;;5126311;28;20530;-67
2022/09/24 09:25:53;;;;;;;13.57;1.90;;;15.90;74.80;;;;;;5126815;28;20506;-66
2022/09/24 09:28:19;;;;;;;8.45;1.70;;;16.00;74.50;;;;;;5110236;28;20423;-66
2022/09/24 09:31:07;;;;;;;7.13;1.40;;;16.00;74.40;;;;;;5126391;28;20076;-67
2022/09/24 09:33:47;;;;;;;6.40;2.03;;;16.00;73.70;;;;;;5127778;28;20398;-66
2022/09/24 09:36:22;;;;;;;9.55;1.70;;;16.00;73.10;;;;;;5128820;28;20464;-68
2022/09/24 09:38:53;;;;;;;9.23;2.95;;;16.00;73.00;;;;;;5115683;28;20529;-68
2022/09/24 09:41:42;;;;;;;9.18;1.42;;;16.00;73.00;;;;;;5110721;28;20122;-68
2022/09/24 09:44:25;;;;;;;7.47;1.70;;;16.00;72.80;;;;;;5111685;28;20036;-68
2022/09/24 09:47:23;;;;;;;6.80;1.30;;;16.10;73.00;;;;;;5128858;28;20048;-68
2022/09/24 09:49:52;;;;;;;7.45;1.30;;;16.10;72.50;;;;;;5094450;28;20392;-66
2022/09/24 09:52:23;;;;;;;3.47;1.13;;;16.20;72.70;;;;;;5094557;28;20044;-67
2022/09/24 09:54:49;;;;;;;5.45;1.60;;;16.20;72.20;;;;;;5111514;28;20124;-67
2022/09/24 09:57:24;;;;;;;7.38;1.50;;;16.20;71.60;;;;;;5111159;28;20486;-67
2022/09/24 09:59:53;;;;;;;7.80;1.25;;;16.30;71.40;;;;;;5113460;28;20047;-67
2022/09/24 10:02:49;;;;;;;6.35;1.15;;;16.30;71.40;;;;;;5115629;28;20047;-67
2022/09/24 10:05:20;;;;;;;6.55;1.02;;;16.40;71.20;;;;;;5113193;28;20062;-67
2022/09/24 10:07:46;;;;;;;9.52;1.70;;;16.40;71.30;;;;;;5115223;28;20043;-67
2022/09/24 10:10:19;;;;;;;6.20;1.27;;;16.50;71.10;;;;;;5115335;28;20114;-67
2022/09/24 10:12:45;;;;;;;5.35;1.13;;;16.50;70.30;;;;;;5115591;28;20031;-68
2022/09/24 10:15:14;;;;;;;7.85;1.52;;;16.50;70.20;;;;;;5098328;28;20117;-68
2022/09/24 10:17:41;;;;;;;7.95;1.52;;;16.60;70.10;;;;;;5114692;28;20044;-68
2022/09/24 10:20:20;;;;;;;5.20;1.08;;;16.60;70.10;;;;;;5114992;28;20433;-68
2022/09/24 10:22:50;;;;;;;6.72;1.10;;;16.60;70.20;;;;;;5115231;28;20044;-68
2022/09/24 10:25:25;;;;;;;5.07;1.20;;;16.70;70.00;;;;;;5113235;27;20495;-68
2022/09/24 10:27:53;;;;;;;3.60;0.90;;;16.70;69.70;;;;;;5112464;28;20040;-68
2022/09/24 10:30:35;;;;;;;5.60;1.42;;;16.70;69.80;;;;;;5132513;27;20035;-68
2022/09/24 10:33:03;;;;;;;4.82;1.10;;;16.70;69.30;;;;;;5114658;28;20044;-68
2022/09/24 10:35:34;;;;;;;6.72;0.90;;;16.70;69.30;;;;;;5098028;28;20039;-68
2022/09/24 10:38:03;;;;;;;6.88;1.30;;;16.70;69.30;;;;;;5114483;28;20042;-68
2022/09/24 10:40:39;;;;;;;4.53;1.00;;;16.70;69.30;;;;;;5114485;28;20082;-68
2022/09/24 10:43:05;;;;;;;4.78;1.65;;;16.60;69.40;;;;;;5097561;28;20417;-68
2022/09/24 10:46:02;;;;;;;5.15;1.10;;;16.70;68.90;;;;;;5097707;28;20050;-68
2022/09/24 10:48:41;;;;;;;6.28;1.23;;;16.70;68.70;;;;;;5114145;28;20048;-68
2022/09/24 10:51:34;;;;;;;4.05;1.05;;;16.70;68.70;;;;;;5097101;28;20036;-67
2022/09/24 10:54:25;;;;;;;5.50;1.00;;;16.70;69.00;;;;;;5110473;28;20036;-67
2022/09/24 10:56:52;;;;;;;5.30;1.00;;;16.70;69.00;;;;;;5114759;28;20130;-67
2022/09/24 10:59:24;;;;;;;4.65;1.20;;;16.70;69.20;;;;;;5114103;28;20063;-67
2022/09/24 11:02:10;;;;;;;4.30;1.48;;;16.70;69.00;;;;;;5108052;28;20040;-67
2022/09/24 11:04:42;;;;;;;5.75;1.27;;;16.70;68.80;;;;;;5110713;28;20047;-67
2022/09/24 11:07:20;;;;;;;3.60;1.17;;;16.70;68.70;;;;;;5096807;28;20040;-67
2022/09/24 11:10:04;;;;;;;4.70;0.93;;;16.70;69.00;;;;;;5113860;28;20066;-68
2022/09/24 11:13:00;;;;;;;6.47;1.40;;;16.70;68.90;;;;;;5114403;28;20044;-68
2022/09/24 11:15:32;;;;;;;6.47;1.10;;;16.60;68.80;;;;;;5093896;28;20032;-69
2022/09/24 11:18:00;;;;;;;7.90;1.63;;;16.60;69.10;;;;;;5102333;28;20036;-69
2022/09/24 11:20:49;;;;;;;4.97;1.58;;;16.60;69.30;;;;;;5113912;27;20137;-68
2022/09/24 11:23:21;;;;;;;6.55;1.33;;;16.70;68.90;;;;;;5113717;28;20031;-69
2022/09/24 11:25:50;;;;;;;5.75;1.17;;;16.60;68.40;;;;;;5113758;28;20054;-69
2022/09/24 11:28:39;;;;;;;6.47;1.45;;;16.60;67.90;;;;;;5113244;28;20075;-69
2022/09/24 11:31:07;;;;;;;4.88;0.95;;;16.50;67.30;;;;;;5105726;28;20055;-69
2022/09/24 11:33:51;;;;;;;8.50;1.27;;;16.50;67.70;;;;;;5113684;28;20043;-69
2022/09/24 11:36:47;;;;;;;6.93;1.65;;;16.50;68.10;;;;;;5095347;28;20093;-69
2022/09/24 11:39:33;;;;;;;7.20;1.25;;;16.40;68.10;;;;;;5113125;28;20043;-69
2022/09/24 11:42:15;;;;;;;5.15;1.20;;;16.40;68.10;;;;;;5113466;28;20046;-69
2022/09/24 11:45:05;;;;;;;8.07;1.48;;;16.40;68.30;;;;;;5113109;28;20047;-69
2022/09/24 11:47:43;;;;;;;6.15;0.95;;;16.40;68.70;;;;;;5113000;28;20036;-68
2022/09/24 11:50:34;;;;;;;5.03;1.00;;;16.40;68.60;;;;;;5113403;28;20040;-68
2022/09/24 11:53:09;;;;;;;7.05;1.30;;;16.50;68.90;;;;;;5113415;28;20036;-68
2022/09/24 11:55:50;;;;;;;7.75;1.52;;;16.40;68.90;;;;;;5113284;28;20040;-68
2022/09/24 11:58:42;;;;;;;6.03;1.60;;;16.50;69.20;;;;;;5113160;28;20039;-68
2022/09/24 12:01:21;;;;;;;7.82;1.42;;;16.50;70.00;;;;;;5076059;28;20031;-68
2022/09/24 12:04:09;;;;;;;10.15;1.70;;;16.50;69.40;;;;;;5093523;28;20486;-68
2022/09/24 12:06:44;;;;;;;4.88;1.13;;;16.50;69.30;;;;;;5113104;28;20047;-69
2022/09/24 12:09:23;;;;;;;4.90;0.95;;;16.50;69.70;;;;;;5112761;28;20039;-69
2022/09/24 12:12:05;;;;;;;5.53;1.17;;;16.50;69.90;;;;;;5095867;28;20166;-69
2022/09/24 12:15:18;;;;;;;6.07;1.15;;;16.60;70.30;;;;;;5112840;28;20118;-69
2022/09/24 12:18:10;;;;;;;2.83;0.70;;;16.60;70.50;;;;;;5087213;28;20380;-69
2022/09/24 12:20:46;;;;;;;3.20;0.73;;;16.60;70.50;;;;;;5112651;28;20040;-69
2022/09/24 12:23:16;;;;;;;4.40;0.90;;;16.60;70.70;;;;;;5112701;28;20040;-68
2022/09/24 12:25:45;;;;;;;5.10;1.02;;;16.60;70.40;;;;;;5112214;28;20569;-69
2022/09/24 12:34:41;;;;;;;6.35;1.35;;;16.50;69.60;;;;;;5112056;28;20032;-69
2022/09/24 12:37:11;;;;;;;4.38;1.25;;;16.50;69.90;;;;;;5123233;27;20071;-69
2022/09/24 12:39:54;;;;;;;8.85;1.50;;;16.50;70.00;;;;;;5102001;28;20044;-69
2022/09/24 12:42:22;;;;;;;4.85;1.17;;;16.50;70.00;;;;;;5112777;28;20043;-69
2022/09/24 12:44:52;;;;;;;5.97;1.38;;;16.50;70.00;;;;;;5095508;28;20036;-69
2022/09/24 12:47:22;;;;;;;8.95;2.67;;;16.40;70.00;;;;;;5112405;28;20553;-68
2022/09/24 12:49:53;;;;;;;5.95;1.10;;;16.40;70.10;;;;;;5112358;28;20118;-68
2022/09/24 12:52:26;;;;;;;5.68;1.10;;;16.40;70.10;;;;;;5112644;28;20042;-68
2022/09/24 12:55:01;;;;;;;4.90;1.13;;;16.40;70.20;;;;;;5129459;27;20050;-68
2022/09/24 12:57:41;;;;;;;7.47;1.52;;;16.30;70.00;;;;;;5121122;27;20043;-68
2022/09/24 13:00:38;;;;;;;8.25;1.27;;;16.30;70.10;;;;;;5125632;27;20046;-68
2022/09/24 13:03:05;;;;;;;8.32;1.50;;;16.30;70.40;;;;;;5127088;27;20122;-68
2022/09/24 13:05:42;;;;;;;4.97;1.27;;;16.20;70.70;;;;;;5124552;27;20039;-68
2022/09/24 13:08:20;;;;;;;5.85;1.40;;;16.20;71.00;;;;;;5123550;27;20043;-68